»·PEaware :: N900TS KSAN-KSBP

N900TS :: KSAN-KSBP

FLIGHT INFORMATION

Flight Status: Arrived
Operator: Privately registered:
United States
More flights under this callsign
Pilot: Vlad D. (11271)
Aircraft: SOCATA TBM-900
(TBM9)
More flights by this aircraft type
Origin: KSAN San Diego Intl-Lindbergh
United States
Destination: KSBP San Luis Co Regl
United States
More flights between these airports :: More routes between these airports
Route: PEBLE6 SXC VTU RZS MQO
File this flight plan on PilotEdge
Remarks: Nil
Altitude:
(Current/Filed)
26,000ft
Speed:
(Current/Filed)
310kts
Departed: 03-Apr-19 07:39 AM
Arrived: 03-Apr-19 08:47 AM
Distance/Time
Traveled:
228nm/1:08
Distance/Time
To Go:
Arrived

Flight Plot

Page will automatically refresh every two minutes.


Map Options




Map Legend


Flown Route
Filed Route
Departure Airport
Arrival Airport
Navaid (VOR, NDB)
Fix

Horizontal Profiles

Position Reports

Time Latitude Longitude Heading Altitude Ground
Speed
03-Apr-19 07:13 32.732018 -117.176219 194 23ft 0kts
03-Apr-19 07:14 32.732018 -117.176219 194 23ft 0kts
03-Apr-19 07:15 32.732018 -117.176219 194 23ft 0kts
03-Apr-19 07:16 32.732018 -117.176219 194 23ft 0kts
03-Apr-19 07:17 32.732018 -117.176219 194 23ft 0kts
03-Apr-19 07:18 32.732018 -117.176219 194 23ft 0kts
03-Apr-19 07:19 32.732018 -117.176219 194 23ft 0kts
03-Apr-19 07:20 32.732018 -117.176219 194 23ft 0kts
03-Apr-19 07:21 32.732018 -117.176219 194 23ft 0kts
03-Apr-19 07:22 32.732018 -117.176219 194 23ft 0kts
03-Apr-19 07:23 32.732018 -117.176219 194 23ft 0kts
03-Apr-19 07:24 32.732018 -117.176219 194 23ft 0kts
03-Apr-19 07:25 32.732018 -117.176219 194 23ft 0kts
03-Apr-19 07:26 32.732018 -117.176219 194 23ft 0kts
03-Apr-19 07:27 32.732018 -117.176219 194 23ft 0kts
03-Apr-19 07:28 32.732018 -117.176219 194 23ft 0kts
03-Apr-19 07:29 32.732018 -117.176219 194 23ft 0kts
03-Apr-19 07:30 32.732018 -117.176219 194 23ft 0kts
03-Apr-19 07:31 32.732018 -117.176219 194 23ft 0kts
03-Apr-19 07:32 32.732018 -117.176219 194 23ft 0kts
03-Apr-19 07:33 32.732018 -117.176219 194 23ft 0kts
03-Apr-19 07:34 32.731161 -117.175693 143 23ft 4kts
03-Apr-19 07:35 32.730890 -117.175457 146 23ft 0kts
03-Apr-19 07:36 32.730890 -117.175457 146 23ft 0kts
03-Apr-19 07:37 32.730279 -117.176165 286 19ft 13kts
03-Apr-19 07:38 32.739652 -117.208523 306 1046ft 132kts
03-Apr-19 07:39 32.760631 -117.244170 304 3034ft 131kts
03-Apr-19 07:40 32.781379 -117.279861 304 5046ft 133kts
03-Apr-19 07:41 32.802471 -117.316207 304 7062ft 136kts
03-Apr-19 07:42 32.823794 -117.353041 303 9064ft 137kts
03-Apr-19 07:43 32.844875 -117.389535 303 11039ft 132kts
03-Apr-19 07:44 32.864938 -117.424330 303 12997ft 128kts
03-Apr-19 07:45 32.886460 -117.458221 322 14970ft 133kts
03-Apr-19 07:46 32.917783 -117.481018 322 16919ft 135kts
03-Apr-19 07:47 32.951992 -117.505205 323 18545ft 151kts
03-Apr-19 07:48 32.985237 -117.536004 305 20151ft 155kts
03-Apr-19 07:49 33.012976 -117.577802 305 21576ft 168kts
03-Apr-19 07:50 33.042889 -117.623178 305 22873ft 181kts
03-Apr-19 07:51 33.074772 -117.671592 304 24176ft 189kts
03-Apr-19 07:52 33.107751 -117.721985 304 25504ft 193kts
03-Apr-19 07:53 33.142615 -117.775623 304 26120ft 224kts
03-Apr-19 07:54 33.182409 -117.839361 294 26093ft 249kts
03-Apr-19 07:55 33.209142 -117.917767 291 26097ft 259kts
03-Apr-19 07:56 33.235975 -117.998388 291 26093ft 262kts
03-Apr-19 07:57 33.262996 -118.079817 291 26091ft 263kts
03-Apr-19 07:58 33.289959 -118.161314 291 26090ft 264kts
03-Apr-19 07:59 33.317072 -118.243469 290 26090ft 264kts
03-Apr-19 08:00 33.344009 -118.325321 291 26088ft 264kts
03-Apr-19 08:01 33.371718 -118.407129 298 26074ft 265kts
03-Apr-19 08:02 33.428384 -118.464621 319 26088ft 271kts
03-Apr-19 08:03 33.490116 -118.516903 320 26087ft 271kts
03-Apr-19 08:04 33.551757 -118.569017 320 26086ft 271kts
03-Apr-19 08:05 33.613228 -118.621068 320 26085ft 270kts
03-Apr-19 08:06 33.674383 -118.672941 319 26094ft 271kts
03-Apr-19 08:07 33.735957 -118.725264 319 26093ft 272kts
03-Apr-19 08:08 33.797825 -118.777925 319 26092ft 272kts
03-Apr-19 08:09 33.859511 -118.830531 319 26092ft 272kts
03-Apr-19 08:10 33.921216 -118.883251 319 26094ft 272kts
03-Apr-19 08:11 33.983250 -118.936350 319 26097ft 273kts
03-Apr-19 08:12 34.045100 -118.989421 319 26106ft 273kts
03-Apr-19 08:13 34.107167 -119.042843 317 26107ft 273kts
03-Apr-19 08:14 34.151582 -119.115783 301 25545ft 267kts
03-Apr-19 08:15 34.192295 -119.189645 301 24528ft 261kts
03-Apr-19 08:16 34.232186 -119.262213 301 24113ft 255kts
03-Apr-19 08:17 34.271277 -119.333491 301 24115ft 254kts
03-Apr-19 08:18 34.311673 -119.407313 301 23067ft 268kts
03-Apr-19 08:19 34.353100 -119.483159 302 21849ft 269kts
03-Apr-19 08:20 34.394331 -119.558810 302 20630ft 269kts
03-Apr-19 08:21 34.434666 -119.632965 302 19251ft 258kts
03-Apr-19 08:22 34.473362 -119.704249 302 17835ft 248kts
03-Apr-19 08:23 34.511462 -119.773525 309 16341ft 246kts
03-Apr-19 08:24 34.558078 -119.834766 311 14933ft 247kts
03-Apr-19 08:25 34.604496 -119.895830 311 13627ft 242kts
03-Apr-19 08:26 34.650206 -119.956073 311 12318ft 241kts
03-Apr-19 08:27 34.695671 -120.016121 312 11002ft 236kts
03-Apr-19 08:28 34.739533 -120.074134 312 9553ft 231kts
03-Apr-19 08:29 34.783038 -120.131754 313 8040ft 231kts
03-Apr-19 08:30 34.826806 -120.189820 313 6524ft 232kts
03-Apr-19 08:31 34.869347 -120.246366 313 5990ft 218kts
03-Apr-19 08:32 34.910391 -120.300992 313 5988ft 216kts
03-Apr-19 08:33 34.946205 -120.357980 271 5965ft 217kts
03-Apr-19 08:34 34.902980 -120.363536 101 5104ft 223kts
03-Apr-19 08:35 34.944740 -120.342562 337 4150ft 214kts
03-Apr-19 08:36 34.998174 -120.372256 335 3983ft 204kts
03-Apr-19 08:37 35.048026 -120.400639 335 3983ft 189kts
03-Apr-19 08:38 35.091727 -120.425544 335 3987ft 155kts
03-Apr-19 08:39 35.126598 -120.453075 307 3791ft 147kts
03-Apr-19 08:40 35.149472 -120.490441 307 3114ft 126kts
03-Apr-19 08:41 35.169223 -120.523188 306 2873ft 119kts
03-Apr-19 08:42 35.188899 -120.555648 306 1969ft 112kts
03-Apr-19 08:43 35.205648 -120.585245 303 1329ft 103kts
03-Apr-19 08:44 35.221561 -120.612939 304 691ft 91kts
03-Apr-19 08:45 35.235401 -120.637610 304 220ft 80kts
03-Apr-19 08:46 35.240695 -120.647108 278 215ft 11kts
03-Apr-19 08:47 35.239041 -120.646785 177 215ft 9kts
03-Apr-19 08:48 35.238052 -120.647314 271 215ft 0kts
03-Apr-19 08:49 35.238052 -120.647314 271 215ft 0kts
03-Apr-19 08:50 35.238052 -120.647314 271 215ft 0kts
03-Apr-19 08:51 35.238052 -120.647314 271 215ft 0kts

Navigation Log

Ident Type
Flight plan parsing failed, navigation log unavailable